createdAt,value
2022-12-08T00:01:09.654Z,4.55
2022-12-08T00:03:36.904Z,3.65
2022-12-08T00:06:24.069Z,6.25
2022-12-08T00:09:09.916Z,5.75
2022-12-08T00:11:36.589Z,5.93
2022-12-08T00:14:03.369Z,6.43
2022-12-08T00:16:29.851Z,6.30
2022-12-08T00:18:56.408Z,5.97
2022-12-08T00:21:22.857Z,5.28
2022-12-08T00:23:49.254Z,4.85
2022-12-08T00:26:15.884Z,7.80
2022-12-08T00:28:42.371Z,8.13
2022-12-08T00:31:10.510Z,6.85
2022-12-08T00:33:37.342Z,5.47
2022-12-08T00:36:11.104Z,5.47
2022-12-08T00:38:38.816Z,6.30
2022-12-08T00:41:17.260Z,5.10
2022-12-08T00:43:44.099Z,5.10
2022-12-08T00:46:11.963Z,8.32
2022-12-08T00:48:39.203Z,6.55
2022-12-08T00:51:05.963Z,5.47
2022-12-08T00:53:32.447Z,6.45
2022-12-08T00:55:59.005Z,6.97
2022-12-08T00:58:25.420Z,9.00
2022-12-08T01:00:52.531Z,8.82
2022-12-08T01:03:19.185Z,7.82
2022-12-08T01:05:45.759Z,8.13
2022-12-08T01:08:12.471Z,6.18
2022-12-08T01:10:39.551Z,8.52
2022-12-08T01:13:06.168Z,7.72
2022-12-08T01:15:32.569Z,6.18
2022-12-08T01:17:59.194Z,8.00
2022-12-08T01:20:25.650Z,7.22
2022-12-08T01:22:52.151Z,6.25
2022-12-08T01:25:18.640Z,5.75
2022-12-08T01:27:45.127Z,6.22
2022-12-08T01:30:13.173Z,6.65
2022-12-08T01:32:40.175Z,6.00
2022-12-08T01:35:06.845Z,6.90
2022-12-08T01:37:33.303Z,6.78
2022-12-08T01:39:59.755Z,6.68
2022-12-08T01:42:26.361Z,8.15
2022-12-08T01:45:02.532Z,4.75
2022-12-08T01:47:37.849Z,6.38
2022-12-08T01:50:06.977Z,5.20
2022-12-08T01:55:17.439Z,4.80
2022-12-08T01:57:48.572Z,4.63
2022-12-08T02:00:18.563Z,6.22
2022-12-08T02:05:16.141Z,3.95
2022-12-08T02:07:43.806Z,4.63
2022-12-08T02:10:14.094Z,4.43
2022-12-08T02:12:40.799Z,4.32
2022-12-08T02:15:07.942Z,5.75
2022-12-08T02:18:03.426Z,2.80
2022-12-08T02:20:50.306Z,3.28
2022-12-08T02:23:27.319Z,3.63
2022-12-08T02:26:33.079Z,4.82
2022-12-08T02:29:21.388Z,5.40
2022-12-08T02:32:08.823Z,6.07
2022-12-08T02:34:45.549Z,5.00
2022-12-08T02:37:23.868Z,4.97
2022-12-08T02:40:11.679Z,6.88
2022-12-08T02:42:43.929Z,5.25
2022-12-08T02:45:17.602Z,7.68
2022-12-08T02:47:44.729Z,8.63
2022-12-08T02:50:12.079Z,5.60
2022-12-08T02:52:43.831Z,6.65
2022-12-08T02:55:31.061Z,6.05
2022-12-08T02:58:42.139Z,6.97
2022-12-08T03:01:20.507Z,6.28
2022-12-08T03:04:23.640Z,6.38
2022-12-08T03:07:04.066Z,6.57
2022-12-08T03:09:53.575Z,9.02
2022-12-08T03:12:30.310Z,5.50
2022-12-08T03:15:00.410Z,5.90
2022-12-08T03:17:30.941Z,6.20
2022-12-08T03:20:00.095Z,5.22
2022-12-08T03:22:27.703Z,6.35
2022-12-08T03:24:55.762Z,5.95
2022-12-08T03:27:27.916Z,5.53
2022-12-08T03:29:57.184Z,5.10
2022-12-08T03:34:54.329Z,5.95
2022-12-08T03:37:21.546Z,4.18
2022-12-08T03:39:48.477Z,5.82
2022-12-08T03:42:14.921Z,9.18
2022-12-08T03:44:41.350Z,7.05
2022-12-08T03:47:08.204Z,3.97
2022-12-08T03:49:34.761Z,5.03
2022-12-08T03:52:01.182Z,2.85
2022-12-08T03:54:27.693Z,2.72
2022-12-08T03:56:54.130Z,5.63
2022-12-08T03:59:20.708Z,7.20
2022-12-08T04:01:47.264Z,4.70
2022-12-08T04:04:13.720Z,2.38
2022-12-08T04:06:40.301Z,3.25
2022-12-08T04:09:06.694Z,1.80
2022-12-08T04:11:33.335Z,1.85
2022-12-08T04:13:59.778Z,2.75
2022-12-08T04:16:27.934Z,1.92
2022-12-08T04:18:55.076Z,3.85
2022-12-08T04:21:21.951Z,1.95
2022-12-08T04:23:48.958Z,1.30
2022-12-08T04:26:15.611Z,1.55
2022-12-08T04:28:42.395Z,2.60
2022-12-08T04:31:09.272Z,4.78
2022-12-08T04:33:35.866Z,2.35
2022-12-08T04:36:04.648Z,3.13
2022-12-08T04:38:31.968Z,1.60
2022-12-08T04:40:58.470Z,2.03
2022-12-08T04:43:24.932Z,2.95
2022-12-08T04:45:51.405Z,1.45
2022-12-08T04:48:18.119Z,1.65
2022-12-08T04:50:45.608Z,2.03
2022-12-08T04:53:13.029Z,2.35
2022-12-08T04:55:41.229Z,3.03
2022-12-08T04:58:07.855Z,2.75
2022-12-08T05:00:34.289Z,2.70
2022-12-08T05:03:00.872Z,4.00
2022-12-08T05:05:27.364Z,3.70
2022-12-08T05:07:53.834Z,5.70
2022-12-08T05:10:20.369Z,3.25
2022-12-08T05:12:46.836Z,3.95
2022-12-08T05:15:13.407Z,2.35
2022-12-08T05:17:39.836Z,3.28
2022-12-08T05:20:07.089Z,3.28
2022-12-08T05:22:33.895Z,2.70
2022-12-08T05:25:00.404Z,3.53
2022-12-08T05:27:26.889Z,2.40
2022-12-08T05:29:53.575Z,2.13
2022-12-08T05:32:20.103Z,4.20
2022-12-08T05:34:46.557Z,1.60
2022-12-08T05:37:13.164Z,1.45
2022-12-08T05:39:39.675Z,2.75
2022-12-08T05:42:06.388Z,3.72
2022-12-08T05:44:32.918Z,1.45
2022-12-08T05:46:59.347Z,1.90
2022-12-08T05:49:26.151Z,2.17
2022-12-08T05:51:52.808Z,2.65
2022-12-08T05:54:19.308Z,3.90
2022-12-08T05:56:45.725Z,3.00
2022-12-08T05:59:12.210Z,1.70
2022-12-08T06:01:39.132Z,2.35
2022-12-08T06:04:05.662Z,2.22
2022-12-08T06:06:34.999Z,2.47
2022-12-08T06:09:05.393Z,2.35
2022-12-08T06:11:32.817Z,1.50
2022-12-08T06:14:00.049Z,1.70
2022-12-08T06:16:28.210Z,1.42
2022-12-08T06:18:55.788Z,2.03
2022-12-08T06:21:23.084Z,3.95
2022-12-08T06:23:51.684Z,1.80
2022-12-08T06:26:18.850Z,3.03
2022-12-08T06:28:45.527Z,3.08
2022-12-08T06:31:24.640Z,1.20
2022-12-08T06:33:52.406Z,2.42
2022-12-08T06:36:21.403Z,1.70
2022-12-08T06:38:48.105Z,1.05
2022-12-08T06:41:14.896Z,1.83
2022-12-08T06:43:41.658Z,2.65
2022-12-08T06:46:11.997Z,1.83
2022-12-08T06:48:38.676Z,2.05
2022-12-08T06:51:10.568Z,1.02
2022-12-08T06:53:40.517Z,1.13
2022-12-08T06:56:07.851Z,1.60
2022-12-08T06:58:34.615Z,1.48
2022-12-08T07:01:09.131Z,1.50
2022-12-08T07:03:37.158Z,1.55
2022-12-08T07:06:04.708Z,1.63
2022-12-08T07:08:32.691Z,1.10
2022-12-08T07:10:59.366Z,1.20
2022-12-08T07:13:25.775Z,2.67
2022-12-08T07:15:52.598Z,1.38
2022-12-08T07:18:19.092Z,1.70
2022-12-08T07:20:45.595Z,1.75
2022-12-08T07:23:12.072Z,3.58
2022-12-08T07:25:38.595Z,4.32
2022-12-08T07:28:10.000Z,3.00
2022-12-08T07:30:36.984Z,4.22
2022-12-08T07:33:05.589Z,3.15
2022-12-08T07:35:34.731Z,2.70
2022-12-08T07:38:01.924Z,3.40
2022-12-08T07:40:28.639Z,2.63
2022-12-08T07:42:55.192Z,2.97
2022-12-08T07:45:24.519Z,7.90
2022-12-08T07:47:54.925Z,3.33
2022-12-08T07:50:21.403Z,4.68
2022-12-08T07:52:48.763Z,2.90
2022-12-08T07:55:15.360Z,3.60
2022-12-08T07:57:41.876Z,3.40
2022-12-08T08:00:08.945Z,3.83
2022-12-08T08:02:38.499Z,4.20
2022-12-08T08:05:06.224Z,4.15
2022-12-08T08:07:32.945Z,2.83
2022-12-08T08:09:59.477Z,4.20
2022-12-08T08:12:33.543Z,3.47
2022-12-08T08:15:01.673Z,3.85
2022-12-08T08:17:29.484Z,4.35
2022-12-08T08:19:56.743Z,2.80
2022-12-08T08:22:24.170Z,2.65
2022-12-08T08:24:50.668Z,3.42
2022-12-08T08:27:17.233Z,1.95
2022-12-08T08:29:43.839Z,1.98
2022-12-08T08:32:10.496Z,2.95
2022-12-08T08:34:37.083Z,4.18
2022-12-08T08:37:04.862Z,1.95
2022-12-08T08:39:31.896Z,3.70
2022-12-08T08:41:58.637Z,1.88
2022-12-08T08:44:25.302Z,2.20
2022-12-08T08:46:51.909Z,1.90
2022-12-08T08:49:18.714Z,2.67
2022-12-08T08:51:45.414Z,1.60
2022-12-08T08:54:11.895Z,2.65
2022-12-08T08:56:38.370Z,2.10
2022-12-08T08:59:05.745Z,1.90
2022-12-08T09:01:32.549Z,1.77
2022-12-08T09:03:59.393Z,2.35
2022-12-08T09:06:28.004Z,3.28
2022-12-08T09:08:54.614Z,2.35
2022-12-08T09:11:23.419Z,1.30
2022-12-08T09:13:51.968Z,2.15
2022-12-08T09:16:19.531Z,2.55
2022-12-08T09:18:46.344Z,2.03
2022-12-08T09:21:20.101Z,3.30
2022-12-08T09:23:46.511Z,8.32
2022-12-08T09:26:12.916Z,1.50
2022-12-08T09:28:39.452Z,1.63
2022-12-08T09:31:06.222Z,1.40
2022-12-08T09:33:36.293Z,3.00
2022-12-08T09:36:03.994Z,2.17
2022-12-08T09:38:33.623Z,1.50
2022-12-08T09:41:03.710Z,1.92
2022-12-08T09:44:03.930Z,2.53
2022-12-08T09:46:33.919Z,2.03
2022-12-08T09:49:02.074Z,2.70
2022-12-08T09:51:34.650Z,1.75
2022-12-08T09:54:07.813Z,3.05
2022-12-08T09:56:37.015Z,2.08
2022-12-08T09:59:22.116Z,2.33
2022-12-08T10:01:52.368Z,3.70
2022-12-08T10:04:32.422Z,1.67
2022-12-08T10:07:26.599Z,2.30
2022-12-08T10:10:03.438Z,2.00
2022-12-08T10:12:33.284Z,2.08
2022-12-08T10:15:19.243Z,2.92
2022-12-08T10:17:48.590Z,2.90
2022-12-08T10:20:24.426Z,3.47
2022-12-08T10:22:58.564Z,2.47
2022-12-08T10:25:35.469Z,1.70
2022-12-08T10:28:08.735Z,1.83
2022-12-08T10:30:35.236Z,1.83
2022-12-08T10:33:01.952Z,1.75
2022-12-08T10:35:45.883Z,1.60
2022-12-08T10:38:30.636Z,4.93
2022-12-08T10:41:11.350Z,1.65
2022-12-08T10:46:38.077Z,1.58
2022-12-08T10:49:04.659Z,0.90
2022-12-08T10:51:34.139Z,1.35
2022-12-08T10:54:01.517Z,1.35
2022-12-08T10:56:30.680Z,1.88
2022-12-08T10:59:13.400Z,1.90
2022-12-08T11:01:41.506Z,2.80
2022-12-08T11:04:20.310Z,3.00
2022-12-08T11:06:48.940Z,1.88
2022-12-08T11:09:15.480Z,2.67
2022-12-08T11:11:50.162Z,1.33
2022-12-08T11:14:22.594Z,1.27
2022-12-08T11:16:55.982Z,1.60
2022-12-08T11:19:27.754Z,2.40
2022-12-08T11:21:54.468Z,1.35
2022-12-08T11:24:24.775Z,1.42
2022-12-08T11:27:04.704Z,1.63
2022-12-08T11:29:35.493Z,1.15
2022-12-08T11:32:04.438Z,2.00
2022-12-08T11:41:39.773Z,3.35
2022-12-08T11:59:50.896Z,3.05
2022-12-08T12:09:44.495Z,2.25
2022-12-08T12:12:39.909Z,2.40
2022-12-08T12:15:30.061Z,2.72
2022-12-08T12:21:34.351Z,2.97
2022-12-08T12:24:06.986Z,1.83
2022-12-08T12:27:22.191Z,1.52
2022-12-08T12:30:13.460Z,1.38
2022-12-08T12:36:18.133Z,0.73
2022-12-08T12:39:10.984Z,1.52
2022-12-08T12:42:06.507Z,1.35
2022-12-08T12:44:56.098Z,1.15
2022-12-08T12:47:56.253Z,1.23
2022-12-08T12:50:32.427Z,3.45
2022-12-08T12:53:17.315Z,2.40
2022-12-08T12:56:00.752Z,4.15
2022-12-08T12:58:27.954Z,3.55
2022-12-08T13:01:45.084Z,2.70
2022-12-08T13:05:06.252Z,2.30
2022-12-08T13:12:45.416Z,2.28
2022-12-08T13:23:35.046Z,2.40
2022-12-08T13:34:48.434Z,1.42
2022-12-08T13:42:16.714Z,3.03
2022-12-08T13:46:12.518Z,2.33
2022-12-08T13:57:01.272Z,2.60
2022-12-08T13:59:29.608Z,2.05
2022-12-08T14:02:55.393Z,2.10
2022-12-08T14:06:13.674Z,2.22
2022-12-08T14:09:23.439Z,2.70
2022-12-08T14:12:37.616Z,2.45
2022-12-08T14:19:07.570Z,4.80
2022-12-08T14:22:12.408Z,2.20
2022-12-08T14:24:38.380Z,2.45
2022-12-08T14:27:10.582Z,3.13
2022-12-08T14:29:52.695Z,2.45
2022-12-08T14:33:03.166Z,4.43
2022-12-08T14:36:17.962Z,3.25
2022-12-08T14:39:10.881Z,3.25
2022-12-08T14:42:13.977Z,4.25
2022-12-08T14:48:25.618Z,5.18
2022-12-08T14:50:58.025Z,3.63
2022-12-08T14:53:25.601Z,4.05
2022-12-08T14:55:52.362Z,5.30
2022-12-08T14:58:24.827Z,5.60
2022-12-08T15:00:56.742Z,4.43
2022-12-08T15:03:24.745Z,5.85
2022-12-08T15:05:56.955Z,4.65
2022-12-08T15:08:24.270Z,5.28
2022-12-08T15:11:13.711Z,4.15
2022-12-08T15:13:48.232Z,5.57
2022-12-08T15:16:29.204Z,7.28
2022-12-08T15:19:28.248Z,6.78
2022-12-08T15:21:57.492Z,4.95
2022-12-08T15:26:52.840Z,4.65
2022-12-08T15:29:28.289Z,5.65
2022-12-08T15:32:00.694Z,6.85
2022-12-08T15:34:27.522Z,6.00
2022-12-08T15:36:55.067Z,6.10
2022-12-08T15:39:32.921Z,5.53
2022-12-08T15:42:00.372Z,6.05
2022-12-08T15:44:27.154Z,7.25
2022-12-08T15:46:53.944Z,5.32
2022-12-08T15:49:22.881Z,7.18
2022-12-08T15:51:50.157Z,5.38
2022-12-08T15:54:16.886Z,6.78
2022-12-08T15:57:17.959Z,7.45
2022-12-08T15:59:37.521Z,5.35
2022-12-08T16:02:04.207Z,5.80
2022-12-08T16:05:18.358Z,5.28
2022-12-08T16:07:33.562Z,7.22
2022-12-08T16:13:57.509Z,5.53
2022-12-08T16:16:29.511Z,5.90
2022-12-08T16:21:53.410Z,5.47
2022-12-08T16:24:09.605Z,7.93
2022-12-08T16:27:35.485Z,6.95
2022-12-08T16:29:28.346Z,7.07
2022-12-08T16:31:55.039Z,10.40
2022-12-08T16:34:21.608Z,7.57
2022-12-08T16:36:52.541Z,10.48
2022-12-08T16:39:19.111Z,10.40
2022-12-08T16:42:04.159Z,14.63
2022-12-08T16:44:42.372Z,9.50
2022-12-08T16:47:09.423Z,10.07
2022-12-08T16:49:39.225Z,14.25
2022-12-08T16:52:08.592Z,11.65
2022-12-08T16:54:35.247Z,8.63
2022-12-08T16:57:01.772Z,8.75
2022-12-08T16:59:28.255Z,8.85
2022-12-08T17:01:54.770Z,11.98
2022-12-08T17:04:36.931Z,6.80
2022-12-08T17:07:03.545Z,9.82
2022-12-08T17:09:31.611Z,8.50
2022-12-08T17:12:03.514Z,9.15
2022-12-08T17:14:33.992Z,10.65
2022-12-08T17:17:00.919Z,9.30
2022-12-08T17:19:27.499Z,8.73
2022-12-08T17:21:53.990Z,8.38
2022-12-08T17:24:22.981Z,6.93
2022-12-08T17:26:49.485Z,8.40
2022-12-08T17:29:18.580Z,7.68
2022-12-08T17:31:45.518Z,7.70
2022-12-08T17:34:12.244Z,8.02
2022-12-08T17:36:38.746Z,8.98
2022-12-08T17:39:13.441Z,8.88
2022-12-08T17:41:44.673Z,8.68
2022-12-08T17:44:17.450Z,10.30
2022-12-08T17:46:49.109Z,10.35
2022-12-08T17:49:24.808Z,8.07
2022-12-08T17:51:54.844Z,9.55
2022-12-08T17:54:21.752Z,7.90
2022-12-08T17:56:48.453Z,8.40
2022-12-08T17:59:15.509Z,9.77
2022-12-08T18:01:44.532Z,11.32
2022-12-08T18:04:12.424Z,10.48
2022-12-08T18:06:43.393Z,10.40
2022-12-08T18:09:10.015Z,10.85
2022-12-08T18:11:36.863Z,12.75
2022-12-08T18:14:09.935Z,12.57
2022-12-08T18:16:47.204Z,10.88
2022-12-08T18:19:15.386Z,10.18
2022-12-08T18:21:42.390Z,11.77
2022-12-08T18:24:15.162Z,13.57
2022-12-08T18:26:41.707Z,10.85
2022-12-08T18:29:08.155Z,10.15
2022-12-08T18:31:34.604Z,13.05
2022-12-08T18:34:01.151Z,12.45
2022-12-08T18:36:27.630Z,23.27
2022-12-08T18:38:54.146Z,15.20
2022-12-08T18:41:26.526Z,13.00
2022-12-08T18:44:00.392Z,16.33
2022-12-08T18:46:39.125Z,12.85
2022-12-08T18:52:13.168Z,14.30
2022-12-08T18:55:09.111Z,13.82
2022-12-08T18:58:06.501Z,12.82
2022-12-08T19:00:31.385Z,15.82
2022-12-08T19:03:00.039Z,14.70
2022-12-08T19:05:26.836Z,13.98
2022-12-08T19:15:33.456Z,15.88
2022-12-08T19:28:43.125Z,44.35
2022-12-08T19:31:10.771Z,33.92
2022-12-08T19:38:35.464Z,25.45
2022-12-08T19:45:00.444Z,18.67
2022-12-08T19:48:09.889Z,18.55
2022-12-08T19:51:14.799Z,24.83
2022-12-08T19:53:47.286Z,31.02
2022-12-08T19:56:14.469Z,27.15
2022-12-08T19:58:41.210Z,47.95
2022-12-08T20:01:08.159Z,23.05
2022-12-08T20:03:40.373Z,22.70
2022-12-08T20:06:18.315Z,19.73
2022-12-08T20:09:09.288Z,18.83
2022-12-08T20:15:29.629Z,21.83
2022-12-08T20:21:41.569Z,27.08
2022-12-08T20:24:17.615Z,28.35
2022-12-08T20:30:02.935Z,21.45
2022-12-08T20:32:33.395Z,22.65
2022-12-08T20:35:56.119Z,19.85
2022-12-08T20:41:26.626Z,19.40
2022-12-08T20:44:05.514Z,19.90
2022-12-08T20:46:34.692Z,21.35
2022-12-08T20:49:04.226Z,18.98
2022-12-08T20:51:32.821Z,19.42
2022-12-08T20:54:02.143Z,19.45
2022-12-08T20:56:36.453Z,20.13
2022-12-08T20:59:03.287Z,21.35
2022-12-08T21:01:32.467Z,22.95
2022-12-08T21:04:28.107Z,24.35
2022-12-08T21:07:01.623Z,23.02
2022-12-08T21:09:31.705Z,23.40
2022-12-08T21:11:58.575Z,24.48
2022-12-08T21:17:43.693Z,23.60
2022-12-08T21:21:10.999Z,23.65
2022-12-08T21:30:13.896Z,24.55
2022-12-08T21:32:39.304Z,21.10
2022-12-08T21:42:00.237Z,28.40
2022-12-08T21:44:56.349Z,20.02
2022-12-08T21:47:52.236Z,23.10
2022-12-08T21:50:20.025Z,22.48
2022-12-08T21:56:11.443Z,24.83
2022-12-08T21:59:01.798Z,23.33
2022-12-08T22:03:30.182Z,21.85
2022-12-08T22:06:45.685Z,23.20
2022-12-08T22:15:33.134Z,24.45
2022-12-08T22:18:31.305Z,24.33
2022-12-08T22:25:30.977Z,24.30
2022-12-08T22:28:22.339Z,26.05
2022-12-08T22:31:07.430Z,27.25
2022-12-08T22:33:40.597Z,29.65
2022-12-08T22:37:04.200Z,28.00
2022-12-08T22:40:40.773Z,29.70
2022-12-08T22:44:07.145Z,32.25
2022-12-08T22:47:25.663Z,23.50
2022-12-08T23:00:20.627Z,28.98
2022-12-08T23:09:21.380Z,27.15
2022-12-08T23:14:56.177Z,28.23
2022-12-08T23:17:27.056Z,26.55
2022-12-08T23:20:15.526Z,27.95
2022-12-08T23:22:53.615Z,27.98
2022-12-08T23:38:38.926Z,28.42
2022-12-08T23:48:14.122Z,25.40
2022-12-08T23:54:12.872Z,26.25
2022-12-08T23:57:04.480Z,26.77
2022-12-08T23:59:42.168Z,27.42
